Time;durP1;ratioP1;P1;durP2;ratioP2;P2;SDS_P1;SDS_P2;PMS_P1;PMS_P2;Temp;Humidity;BMP_temperature;BMP_pressure;BME280_temperature;BME280_humidity;BME280_pressure;Samples;Min_cycle;Max_cycle;Signal;HPM_P1;HPM_P2
2021/04/30 00:02:28;;;;;;;8.27;7.47;;;10.70;76.90;;;;;;5040612;28;20464;-89
2021/04/30 00:04:57;;;;;;;7.30;6.60;;;10.80;76.70;;;;;;5060056;28;20481;-87
2021/04/30 00:07:52;;;;;;;7.40;6.70;;;10.70;76.90;;;;;;5041925;28;20555;-88
2021/04/30 00:13:25;;;;;;;7.60;6.80;;;10.90;76.70;;;;;;5039226;28;20494;-88
2021/04/30 00:16:22;;;;;;;7.60;7.00;;;11.00;76.70;;;;;;5041855;28;20473;-88
2021/04/30 00:19:08;;;;;;;7.23;6.63;;;11.00;76.60;;;;;;5046102;28;20430;-87
2021/04/30 00:21:39;;;;;;;7.23;6.53;;;10.90;76.90;;;;;;5056074;28;20887;-89
2021/04/30 00:24:09;;;;;;;6.63;6.13;;;10.80;77.10;;;;;;5057577;28;20453;-88
2021/04/30 00:26:35;;;;;;;9.50;8.60;;;10.70;77.30;;;;;;5054864;28;20456;-89
2021/04/30 00:29:06;;;;;;;7.77;7.13;;;10.60;76.60;;;;;;5044011;28;20528;-89
2021/04/30 00:31:38;;;;;;;8.97;8.20;;;10.70;76.20;;;;;;5047869;28;20485;-88
2021/04/30 00:34:07;;;;;;;7.60;7.00;;;10.70;75.40;;;;;;5042730;28;20453;-89
2021/04/30 00:36:41;;;;;;;7.73;7.03;;;10.60;75.10;;;;;;5037378;28;20488;-89
2021/04/30 00:39:12;;;;;;;8.30;7.60;;;10.60;74.80;;;;;;5036892;28;20467;-89
2021/04/30 00:41:42;;;;;;;9.83;8.37;;;10.60;75.00;;;;;;5036911;28;20460;-89
2021/04/30 00:44:12;;;;;;;9.33;8.60;;;10.60;74.90;;;;;;5036873;28;20818;-89
2021/04/30 00:46:39;;;;;;;8.63;7.93;;;10.70;74.70;;;;;;5036656;28;20465;-89
2021/04/30 00:49:06;;;;;;;7.70;7.00;;;10.70;74.50;;;;;;5043165;28;20465;-88
2021/04/30 00:51:37;;;;;;;8.97;8.17;;;10.70;74.50;;;;;;5060182;28;20437;-87
2021/04/30 00:54:05;;;;;;;9.33;8.53;;;10.70;74.20;;;;;;5059880;28;20437;-87
2021/04/30 00:56:34;;;;;;;7.63;7.03;;;10.70;73.90;;;;;;5045222;28;20446;-89
2021/04/30 00:59:06;;;;;;;9.13;8.30;;;10.80;73.80;;;;;;5056423;28;20464;-88
2021/04/30 01:01:36;;;;;;;8.93;8.13;;;10.70;73.60;;;;;;5056466;28;20449;-88
2021/04/30 01:04:09;;;;;;;8.03;7.33;;;10.70;73.10;;;;;;5048247;28;20599;-88
2021/04/30 01:06:36;;;;;;;8.90;8.10;;;10.70;73.30;;;;;;5058501;28;20487;-87
2021/04/30 01:09:06;;;;;;;9.30;8.50;;;10.60;73.70;;;;;;5060133;28;20460;-89
2021/04/30 01:11:42;;;;;;;9.00;8.20;;;10.60;74.30;;;;;;5059799;28;20454;-87
2021/04/30 01:14:15;;;;;;;9.13;8.43;;;10.50;74.40;;;;;;5059829;28;20421;-87
2021/04/30 01:19:29;;;;;;;8.70;7.50;;;10.50;74.40;;;;;;5054176;28;20429;-88
2021/04/30 01:21:57;;;;;;;8.70;8.00;;;10.50;74.40;;;;;;5051241;28;20587;-88
2021/04/30 01:24:26;;;;;;;8.70;7.80;;;10.50;74.10;;;;;;5038269;28;20498;-89
2021/04/30 01:26:56;;;;;;;9.03;8.23;;;10.50;73.80;;;;;;5039094;28;20883;-89
2021/04/30 01:29:23;;;;;;;9.40;8.70;;;10.40;74.10;;;;;;5035192;28;20453;-89
2021/04/30 01:31:50;;;;;;;8.87;8.07;;;10.40;74.20;;;;;;5037762;28;20813;-89
2021/04/30 01:34:17;;;;;;;10.17;9.17;;;10.40;73.90;;;;;;5037076;28;20454;-89
2021/04/30 01:36:45;;;;;;;9.13;8.37;;;10.40;74.20;;;;;;5038105;28;20454;-88
2021/04/30 01:39:14;;;;;;;8.33;7.53;;;10.40;74.00;;;;;;5036143;28;20457;-88
2021/04/30 01:41:44;;;;;;;9.97;8.97;;;10.40;74.00;;;;;;5034254;28;20468;-89
2021/04/30 01:44:15;;;;;;;10.50;9.47;;;10.40;73.80;;;;;;5054331;28;20420;-89
2021/04/30 01:46:44;;;;;;;9.30;8.60;;;10.40;73.40;;;;;;5057764;28;20459;-89
2021/04/30 01:49:11;;;;;;;9.40;8.60;;;10.40;73.40;;;;;;5041350;28;20480;-87
2021/04/30 01:51:43;;;;;;;8.97;8.27;;;10.30;73.20;;;;;;5053107;28;20426;-86
2021/04/30 01:54:10;;;;;;;8.77;8.07;;;10.30;73.10;;;;;;5053000;28;20481;-88
2021/04/30 01:56:37;;;;;;;9.23;8.43;;;10.30;73.40;;;;;;5035811;28;20992;-88
2021/04/30 01:59:08;;;;;;;8.67;7.83;;;10.30;73.30;;;;;;5038963;28;20825;-88
2021/04/30 02:01:37;;;;;;;9.20;8.30;;;10.30;73.60;;;;;;5035499;28;20958;-88
2021/04/30 02:04:13;;;;;;;8.57;7.80;;;10.30;73.60;;;;;;5034172;28;20449;-88
2021/04/30 02:06:40;;;;;;;9.33;8.53;;;10.30;73.90;;;;;;5035020;28;20487;-88
2021/04/30 02:09:11;;;;;;;9.70;8.90;;;10.40;73.80;;;;;;5038473;28;20531;-88
2021/04/30 02:11:41;;;;;;;9.90;9.10;;;10.30;73.80;;;;;;5035455;28;20434;-88
2021/04/30 02:14:22;;;;;;;9.57;8.67;;;10.30;73.50;;;;;;5015454;28;20458;-88
2021/04/30 02:16:56;;;;;;;10.17;9.23;;;10.30;73.50;;;;;;5015321;28;20827;-88
2021/04/30 02:19:27;;;;;;;9.77;8.97;;;10.20;73.40;;;;;;5024642;28;20938;-89
2021/04/30 02:22:00;;;;;;;10.13;9.20;;;10.20;73.40;;;;;;5035382;28;20464;-89
2021/04/30 02:24:32;;;;;;;10.93;9.67;;;10.20;73.20;;;;;;5034948;28;20968;-89
2021/04/30 02:27:05;;;;;;;10.10;9.20;;;10.30;72.80;;;;;;5034811;28;20449;-89
2021/04/30 02:29:37;;;;;;;10.57;9.47;;;10.30;73.20;;;;;;5040573;28;20457;-88
2021/04/30 02:32:13;;;;;;;9.87;8.97;;;10.40;74.70;;;;;;5039058;28;20930;-89
2021/04/30 02:34:42;;;;;;;11.90;10.80;;;10.40;74.70;;;;;;5034255;28;20571;-89
2021/04/30 02:37:26;;;;;;;12.43;11.20;;;10.30;75.60;;;;;;5034354;28;20449;-88
2021/04/30 02:39:54;;;;;;;12.00;10.87;;;10.30;76.70;;;;;;5034894;28;20460;-89
2021/04/30 02:42:29;;;;;;;10.60;9.70;;;10.20;77.50;;;;;;5034580;28;20453;-88
2021/04/30 02:45:01;;;;;;;13.30;11.90;;;10.20;77.50;;;;;;5039468;28;20523;-89
2021/04/30 02:47:36;;;;;;;12.03;10.20;;;10.20;77.70;;;;;;5034086;28;20832;-89
2021/04/30 02:50:32;;;;;;;12.10;11.07;;;10.20;79.00;;;;;;5035007;28;20472;-88
2021/04/30 02:56:01;;;;;;;11.20;10.20;;;10.10;78.10;;;;;;5053007;28;20456;-89
2021/04/30 02:58:56;;;;;;;12.90;10.80;;;10.10;78.30;;;;;;5043823;28;20936;-89
2021/04/30 03:01:35;;;;;;;11.80;10.70;;;10.00;79.60;;;;;;5052764;28;20438;-88
2021/04/30 03:04:05;;;;;;;12.30;11.20;;;9.90;81.70;;;;;;5048483;28;20481;-88
2021/04/30 03:06:38;;;;;;;11.80;10.80;;;9.70;82.10;;;;;;5053132;28;20444;-88
2021/04/30 03:09:05;;;;;;;12.10;10.80;;;9.80;82.90;;;;;;5057846;28;20476;-87
2021/04/30 03:11:42;;;;;;;13.27;11.97;;;9.70;81.10;;;;;;5043008;28;20946;-88
2021/04/30 03:14:31;;;;;;;12.43;11.30;;;9.80;81.80;;;;;;5036534;28;20456;-88
2021/04/30 03:17:27;;;;;;;11.30;10.20;;;9.70;81.70;;;;;;5040006;28;20564;-89
2021/04/30 03:20:03;;;;;;;12.07;10.90;;;9.80;81.70;;;;;;5056401;28;20433;-88
2021/04/30 03:22:48;;;;;;;12.87;11.67;;;9.80;81.90;;;;;;5047323;28;20444;-88
2021/04/30 03:25:17;;;;;;;11.73;10.57;;;9.90;81.30;;;;;;5057523;28;20458;-89
2021/04/30 03:27:44;;;;;;;13.37;12.17;;;9.90;81.20;;;;;;5039825;28;20481;-89
2021/04/30 03:30:18;;;;;;;11.97;10.97;;;9.90;80.80;;;;;;5037692;28;20457;-89
2021/04/30 03:32:47;;;;;;;12.10;11.00;;;9.90;80.70;;;;;;5036534;28;20541;-89
2021/04/30 03:38:04;;;;;;;12.20;11.00;;;9.90;79.60;;;;;;5035255;28;20857;-89
2021/04/30 03:40:39;;;;;;;11.47;10.43;;;9.90;79.60;;;;;;5050907;28;20512;-89
2021/04/30 03:43:12;;;;;;;12.87;11.67;;;10.00;77.90;;;;;;5055332;28;20437;-89
2021/04/30 03:45:52;;;;;;;12.73;11.43;;;10.00;77.10;;;;;;5040732;28;20993;-89
2021/04/30 03:48:21;;;;;;;11.87;10.77;;;10.00;77.00;;;;;;5034099;28;20477;-89
2021/04/30 03:50:56;;;;;;;12.23;10.90;;;10.00;77.00;;;;;;5033373;28;20983;-89
2021/04/30 03:53:25;;;;;;;12.50;11.40;;;10.00;77.10;;;;;;5036679;28;20514;-89
2021/04/30 03:56:01;;;;;;;12.93;11.80;;;10.00;76.80;;;;;;5056938;28;20468;-88
2021/04/30 03:58:32;;;;;;;11.80;10.80;;;10.00;76.80;;;;;;5057676;28;20429;-88
2021/04/30 04:01:05;;;;;;;11.60;10.53;;;10.00;76.90;;;;;;5053707;28;20475;-89
2021/04/30 04:03:41;;;;;;;15.27;13.70;;;10.00;76.60;;;;;;5058247;28;20433;-88
2021/04/30 04:06:12;;;;;;;14.87;13.33;;;10.00;75.90;;;;;;5047163;28;20484;-89
2021/04/30 04:08:43;;;;;;;13.03;11.57;;;9.90;77.50;;;;;;5041072;28;20581;-89
2021/04/30 04:11:33;;;;;;;14.03;12.50;;;9.90;77.70;;;;;;5039713;28;20501;-89
2021/04/30 04:14:06;;;;;;;11.87;10.83;;;9.80;77.70;;;;;;5040304;28;20512;-89
2021/04/30 04:16:37;;;;;;;12.70;11.50;;;9.80;78.00;;;;;;5038105;28;20838;-89
2021/04/30 04:19:17;;;;;;;13.60;11.47;;;9.90;78.00;;;;;;5039125;28;20445;-89
2021/04/30 04:21:50;;;;;;;13.83;11.83;;;9.90;77.70;;;;;;5037347;28;20468;-89
2021/04/30 04:24:19;;;;;;;13.57;11.10;;;9.90;77.80;;;;;;5043678;28;20454;-89
2021/04/30 04:26:48;;;;;;;12.10;11.00;;;9.80;77.70;;;;;;5060999;28;20433;-89
2021/04/30 04:29:29;;;;;;;12.33;11.13;;;9.90;77.70;;;;;;5060758;28;20457;-89
2021/04/30 04:32:04;;;;;;;14.17;12.80;;;9.90;77.40;;;;;;5044764;28;20453;-89
2021/04/30 04:34:42;;;;;;;13.90;12.40;;;9.90;77.50;;;;;;5059921;28;20475;-90
2021/04/30 04:37:26;;;;;;;14.20;12.70;;;9.90;77.80;;;;;;5055971;28;20425;-89
2021/04/30 05:01:14;;;;;;;13.90;12.50;;;9.90;80.10;;;;;;4804550;29;20890;-89
2021/04/30 05:11:08;;;;;;;13.33;12.03;;;10.10;78.20;;;;;;4857059;29;20616;-90
2021/04/30 05:28:00;;;;;;;12.50;11.40;;;10.20;77.90;;;;;;4781265;30;20520;-88
2021/04/30 05:30:41;;;;;;;14.07;12.77;;;10.20;77.00;;;;;;4808946;29;20460;-89
2021/04/30 05:36:08;;;;;;;16.03;13.73;;;10.20;76.50;;;;;;4997415;28;20467;-87
2021/04/30 05:38:37;;;;;;;13.27;12.07;;;10.20;75.80;;;;;;4998929;28;20459;-89
2021/04/30 05:41:31;;;;;;;14.23;12.37;;;10.20;76.50;;;;;;5020360;28;20437;-89
2021/04/30 05:44:13;;;;;;;13.13;11.90;;;10.10;76.00;;;;;;5036031;28;20422;-89
2021/04/30 05:47:00;;;;;;;14.03;11.97;;;10.10;76.90;;;;;;5038303;28;20453;-90
2021/04/30 05:49:33;;;;;;;13.73;12.30;;;10.10;77.10;;;;;;5055614;28;20476;-89
2021/04/30 05:52:59;;;;;;;15.37;12.63;;;10.20;76.40;;;;;;5048007;28;20452;-90
2021/04/30 05:55:33;;;;;;;14.43;13.03;;;10.30;75.60;;;;;;4957446;28;20468;-89
2021/04/30 05:58:21;;;;;;;13.60;11.33;;;10.30;74.70;;;;;;4974446;28;20451;-90
2021/04/30 06:04:00;;;;;;;16.57;12.10;;;10.40;74.30;;;;;;5034962;28;20531;-90
2021/04/30 06:06:35;;;;;;;13.03;11.73;;;10.50;74.10;;;;;;5045782;28;20461;-90
2021/04/30 06:09:12;;;;;;;12.13;11.03;;;10.60;73.90;;;;;;5055645;28;20456;-90
2021/04/30 06:12:03;;;;;;;15.10;11.77;;;10.70;73.20;;;;;;5041387;28;20537;-90
2021/04/30 06:17:56;;;;;;;12.53;11.43;;;11.10;71.60;;;;;;5010732;28;20441;-90
2021/04/30 06:20:22;;;;;;;13.00;11.70;;;11.30;70.50;;;;;;5035399;28;20441;-88
2021/04/30 06:22:48;;;;;;;16.43;11.57;;;11.30;70.50;;;;;;5039159;28;20460;-90
2021/04/30 06:25:15;;;;;;;12.23;11.13;;;11.20;70.70;;;;;;5035752;28;20473;-87
2021/04/30 06:27:42;;;;;;;12.67;11.37;;;11.20;70.70;;;;;;5033865;28;20481;-87
2021/04/30 06:30:09;;;;;;;13.57;12.27;;;11.20;70.80;;;;;;5034555;28;20453;-88
2021/04/30 06:32:38;;;;;;;13.10;11.80;;;11.20;70.60;;;;;;5034619;28;20500;-88
2021/04/30 06:35:06;;;;;;;12.67;11.47;;;11.30;70.60;;;;;;5035973;28;20484;-88
2021/04/30 06:37:33;;;;;;;14.00;12.13;;;11.40;70.20;;;;;;5048126;28;20468;-86
2021/04/30 06:39:59;;;;;;;13.63;12.20;;;11.50;70.20;;;;;;5057781;28;20455;-86
2021/04/30 06:42:25;;;;;;;13.53;12.07;;;11.30;70.20;;;;;;5039848;28;20446;-87
2021/04/30 06:44:53;;;;;;;13.07;11.77;;;11.20;70.80;;;;;;5056735;28;20449;-84
2021/04/30 06:47:19;;;;;;;12.03;10.97;;;11.20;71.00;;;;;;5042967;28;20464;-87
2021/04/30 06:49:45;;;;;;;13.60;12.30;;;11.10;71.30;;;;;;5036409;28;20456;-87
2021/04/30 06:52:12;;;;;;;12.83;11.63;;;11.10;71.70;;;;;;5037433;28;20442;-87
2021/04/30 06:54:39;;;;;;;12.90;11.70;;;11.10;71.90;;;;;;5035421;28;21025;-87
2021/04/30 06:57:05;;;;;;;13.00;11.73;;;11.20;72.00;;;;;;5036252;28;20457;-87
2021/04/30 06:59:31;;;;;;;13.60;12.30;;;11.20;71.70;;;;;;5036068;28;20442;-86
2021/04/30 07:01:58;;;;;;;16.53;11.50;;;11.10;71.60;;;;;;5035470;28;20449;-87
2021/04/30 07:04:24;;;;;;;13.40;12.00;;;11.10;71.60;;;;;;5035188;28;20456;-87
2021/04/30 07:06:50;;;;;;;11.60;10.40;;;11.10;72.00;;;;;;5054768;28;20425;-86
2021/04/30 07:09:17;;;;;;;13.40;11.90;;;11.10;71.90;;;;;;5049562;28;20535;-88
2021/04/30 07:11:43;;;;;;;17.43;14.53;;;11.00;72.20;;;;;;5036078;28;20446;-87
2021/04/30 07:14:10;;;;;;;13.23;12.00;;;11.00;72.30;;;;;;5034603;28;20438;-87
2021/04/30 07:16:36;;;;;;;12.63;11.43;;;11.00;72.40;;;;;;5035258;28;20441;-87
2021/04/30 07:19:02;;;;;;;12.77;11.67;;;11.00;72.60;;;;;;5044468;28;20448;-86
2021/04/30 07:21:28;;;;;;;14.43;12.77;;;11.00;72.60;;;;;;5054801;28;20441;-86
2021/04/30 07:23:55;;;;;;;12.43;11.33;;;11.10;72.30;;;;;;5034594;28;20457;-87
2021/04/30 07:26:22;;;;;;;12.73;11.53;;;11.10;72.50;;;;;;5035171;28;20473;-86
2021/04/30 07:28:48;;;;;;;13.63;11.60;;;11.20;72.90;;;;;;5034106;28;20574;-87
2021/04/30 07:31:14;;;;;;;14.47;13.17;;;11.20;72.90;;;;;;5031067;28;20445;-86
2021/04/30 07:33:46;;;;;;;12.97;11.87;;;11.20;72.90;;;;;;5037533;28;20556;-87
2021/04/30 07:36:12;;;;;;;13.27;12.07;;;11.10;72.60;;;;;;5032723;28;20476;-87
2021/04/30 07:38:38;;;;;;;13.17;11.87;;;11.10;73.10;;;;;;5035138;28;20532;-87
2021/04/30 07:41:05;;;;;;;16.90;12.30;;;11.10;73.50;;;;;;5037188;28;20452;-86
2021/04/30 07:43:32;;;;;;;13.43;12.23;;;11.10;73.40;;;;;;5036624;28;20448;-87
2021/04/30 07:45:59;;;;;;;12.93;11.73;;;11.00;73.10;;;;;;5039376;28;20469;-87
2021/04/30 07:48:25;;;;;;;12.77;11.50;;;11.10;73.60;;;;;;5059939;28;20498;-88
2021/04/30 07:50:52;;;;;;;13.77;12.43;;;11.00;73.90;;;;;;5052933;28;20445;-87
2021/04/30 07:53:18;;;;;;;14.57;13.03;;;11.00;74.50;;;;;;5054496;28;20429;-87
2021/04/30 07:55:44;;;;;;;13.23;12.03;;;11.10;74.70;;;;;;5049030;28;20515;-87
2021/04/30 07:58:10;;;;;;;16.83;13.83;;;11.10;74.80;;;;;;5039400;28;20442;-87
2021/04/30 08:00:37;;;;;;;13.40;11.97;;;11.20;74.70;;;;;;5039132;28;20498;-87
2021/04/30 08:03:04;;;;;;;14.70;13.30;;;11.30;74.60;;;;;;5039228;28;20437;-87
2021/04/30 08:05:30;;;;;;;14.87;13.37;;;11.30;74.60;;;;;;5043506;28;20472;-86
2021/04/30 08:07:59;;;;;;;14.03;12.70;;;11.40;74.20;;;;;;5055825;28;20484;-87
2021/04/30 08:10:26;;;;;;;11.07;10.07;;;11.40;74.00;;;;;;5057758;28;20433;-87
2021/04/30 08:12:52;;;;;;;12.50;11.40;;;11.40;73.80;;;;;;5050172;28;20451;-87
2021/04/30 08:15:19;;;;;;;13.00;11.70;;;11.30;73.20;;;;;;5051808;28;20475;-88
2021/04/30 08:17:46;;;;;;;11.73;10.60;;;11.30;73.20;;;;;;5056422;28;20934;-87
2021/04/30 08:20:13;;;;;;;13.87;12.37;;;11.30;73.40;;;;;;5055130;28;20445;-87
2021/04/30 08:22:39;;;;;;;15.07;13.53;;;11.30;73.60;;;;;;5058041;28;20441;-87
2021/04/30 08:25:07;;;;;;;15.63;12.23;;;11.30;73.70;;;;;;5057276;28;20470;-87
2021/04/30 08:27:33;;;;;;;13.03;11.60;;;11.20;73.60;;;;;;5043666;28;20938;-87
2021/04/30 08:29:59;;;;;;;11.07;9.77;;;11.30;73.60;;;;;;5038639;28;20739;-86
2021/04/30 08:32:26;;;;;;;12.67;11.57;;;11.20;73.20;;;;;;5037370;28;20506;-86
2021/04/30 08:34:54;;;;;;;12.10;10.90;;;11.30;73.50;;;;;;5036724;28;20536;-87
2021/04/30 08:37:20;;;;;;;11.80;10.70;;;11.30;73.70;;;;;;5035723;28;20453;-86
2021/04/30 08:39:46;;;;;;;11.13;10.13;;;11.30;73.60;;;;;;5036708;28;20437;-86
2021/04/30 08:42:16;;;;;;;12.97;11.77;;;11.40;73.20;;;;;;5041305;28;20448;-86
2021/04/30 08:44:43;;;;;;;12.37;11.17;;;11.40;73.40;;;;;;5044539;28;20496;-85
2021/04/30 08:47:09;;;;;;;12.07;10.87;;;11.50;73.20;;;;;;5039231;28;20452;-86
2021/04/30 08:49:35;;;;;;;13.57;12.27;;;11.50;72.90;;;;;;5035365;28;20488;-87
2021/04/30 08:52:03;;;;;;;13.70;12.30;;;11.60;73.20;;;;;;5036848;28;20459;-87
2021/04/30 08:54:29;;;;;;;12.33;11.03;;;11.70;73.10;;;;;;5046887;28;20492;-87
2021/04/30 08:57:00;;;;;;;12.80;11.50;;;11.80;72.80;;;;;;5041384;28;21067;-87
2021/04/30 08:59:27;;;;;;;12.50;11.20;;;12.00;72.40;;;;;;5037206;28;20453;-86
2021/04/30 09:01:53;;;;;;;12.43;11.27;;;12.00;71.60;;;;;;5036672;28;20445;-86
2021/04/30 09:04:20;;;;;;;15.03;11.80;;;12.10;71.60;;;;;;5035647;28;20441;-86
2021/04/30 09:06:46;;;;;;;11.83;10.73;;;12.10;70.90;;;;;;5036154;28;20445;-86
2021/04/30 09:09:15;;;;;;;14.03;12.30;;;12.10;70.90;;;;;;5038896;28;20484;-86
2021/04/30 09:11:45;;;;;;;12.17;11.07;;;12.10;70.50;;;;;;5058550;28;20447;-87
2021/04/30 09:14:29;;;;;;;14.30;12.53;;;12.20;70.40;;;;;;5051671;28;20454;-87
2021/04/30 09:17:04;;;;;;;14.50;12.97;;;12.20;70.50;;;;;;5057027;28;20463;-87
2021/04/30 09:19:31;;;;;;;13.50;12.27;;;12.20;70.30;;;;;;5042587;28;20449;-86
2021/04/30 09:21:58;;;;;;;14.50;12.37;;;12.20;70.30;;;;;;5038151;28;20965;-87
2021/04/30 09:24:26;;;;;;;12.90;11.70;;;12.20;69.90;;;;;;5035960;28;21042;-87
2021/04/30 09:26:52;;;;;;;13.87;12.47;;;12.10;70.00;;;;;;5039545;28;20445;-87
2021/04/30 09:29:20;;;;;;;13.70;11.80;;;12.00;70.30;;;;;;5036128;28;20481;-86
2021/04/30 09:31:48;;;;;;;12.77;11.47;;;11.90;70.30;;;;;;5051744;28;20437;-87
2021/04/30 09:34:26;;;;;;;13.23;12.13;;;11.80;70.50;;;;;;5049324;28;20445;-87
2021/04/30 09:37:17;;;;;;;15.23;13.67;;;11.80;71.20;;;;;;5053855;28;20437;-87
2021/04/30 09:39:55;;;;;;;16.87;13.60;;;11.80;72.00;;;;;;5032571;28;20457;-87
2021/04/30 09:42:22;;;;;;;14.47;13.07;;;11.80;72.70;;;;;;5037451;28;20441;-87
2021/04/30 09:44:50;;;;;;;17.50;14.40;;;11.80;73.00;;;;;;5036930;28;20480;-87
2021/04/30 09:47:22;;;;;;;15.57;13.80;;;12.00;73.00;;;;;;5037135;28;20438;-87
2021/04/30 09:49:50;;;;;;;16.37;14.20;;;12.20;73.00;;;;;;5036184;28;20505;-88
2021/04/30 09:52:17;;;;;;;14.67;13.33;;;12.20;72.40;;;;;;5036782;28;20449;-87
2021/04/30 09:54:44;;;;;;;14.77;13.30;;;12.20;72.70;;;;;;5040297;28;20467;-88
2021/04/30 09:57:15;;;;;;;16.47;14.97;;;12.10;72.50;;;;;;5040332;28;20452;-85
2021/04/30 09:59:43;;;;;;;16.53;14.50;;;12.10;72.40;;;;;;5044438;28;20453;-88
2021/04/30 10:02:16;;;;;;;19.70;15.43;;;12.00;73.10;;;;;;5037301;28;20964;-88
2021/04/30 10:04:43;;;;;;;16.80;15.20;;;12.00;73.50;;;;;;5034609;28;20469;-91
2021/04/30 10:07:12;;;;;;;17.03;15.43;;;12.00;73.90;;;;;;5045427;28;20463;-89
2021/04/30 10:09:39;;;;;;;16.87;15.47;;;12.00;74.30;;;;;;5057129;28;20522;-88
2021/04/30 10:12:20;;;;;;;22.07;18.13;;;11.90;74.50;;;;;;5047678;28;20449;-87
2021/04/30 10:14:47;;;;;;;17.50;15.80;;;11.90;74.30;;;;;;5056442;28;20447;-88
2021/04/30 10:17:14;;;;;;;18.13;16.20;;;11.90;74.60;;;;;;5043152;28;20441;-88
2021/04/30 10:19:41;;;;;;;17.33;15.63;;;11.90;74.80;;;;;;5039490;28;20838;-87
2021/04/30 10:22:12;;;;;;;17.80;14.80;;;11.80;74.90;;;;;;5037587;28;20438;-87
2021/04/30 10:24:39;;;;;;;16.87;15.23;;;11.80;75.10;;;;;;5039766;28;20523;-87
2021/04/30 10:27:06;;;;;;;18.23;16.53;;;11.90;75.30;;;;;;5036863;28;20477;-88
2021/04/30 10:29:35;;;;;;;16.17;14.50;;;12.00;75.50;;;;;;5035320;28;20539;-87
2021/04/30 10:32:02;;;;;;;16.00;14.33;;;11.90;76.00;;;;;;5035160;28;20449;-86
2021/04/30 10:34:33;;;;;;;18.57;16.77;;;12.10;75.90;;;;;;5044280;28;20469;-87
2021/04/30 10:37:02;;;;;;;17.70;15.93;;;12.10;76.10;;;;;;5022372;28;20492;-87
2021/04/30 10:39:31;;;;;;;18.00;16.30;;;12.00;76.30;;;;;;5056507;28;20444;-87
2021/04/30 10:41:58;;;;;;;19.67;16.27;;;11.90;76.70;;;;;;5038844;28;20532;-87
2021/04/30 10:44:28;;;;;;;18.17;16.37;;;11.80;77.70;;;;;;5036730;28;20445;-86
2021/04/30 10:47:24;;;;;;;18.57;16.70;;;11.60;78.40;;;;;;5035063;28;20450;-87
2021/04/30 10:50:17;;;;;;;19.47;17.50;;;11.50;79.70;;;;;;5033822;28;21066;-86
2021/04/30 10:52:44;;;;;;;18.17;16.27;;;11.30;80.10;;;;;;5034074;28;20450;-87
2021/04/30 10:55:13;;;;;;;20.23;18.13;;;11.10;80.80;;;;;;5034791;28;20465;-87
2021/04/30 10:57:51;;;;;;;21.23;19.23;;;11.00;82.50;;;;;;5033954;28;20453;-88
2021/04/30 11:00:20;;;;;;;22.63;20.33;;;10.90;84.10;;;;;;5035413;28;20452;-86
2021/04/30 11:02:47;;;;;;;22.10;19.90;;;10.80;85.40;;;;;;5036187;28;20457;-86
2021/04/30 11:05:16;;;;;;;32.47;21.87;;;10.60;87.30;;;;;;5035212;28;20461;-87
2021/04/30 11:07:46;;;;;;;22.50;20.10;;;10.50;89.10;;;;;;5045890;28;20452;-87
2021/04/30 11:10:49;;;;;;;25.73;23.03;;;10.40;89.70;;;;;;5054971;28;20539;-83
2021/04/30 11:13:19;;;;;;;24.83;22.37;;;10.30;90.90;;;;;;5049170;28;20409;-86
2021/04/30 11:15:54;;;;;;;25.03;22.50;;;10.20;91.70;;;;;;5061795;28;20473;-88
2021/04/30 11:18:22;;;;;;;25.10;22.53;;;10.10;92.30;;;;;;5060935;28;20479;-87
2021/04/30 11:21:06;;;;;;;22.50;20.17;;;10.00;93.10;;;;;;5058357;28;20571;-88
2021/04/30 11:23:40;;;;;;;22.07;19.57;;;9.90;93.70;;;;;;5059913;28;20433;-87
2021/04/30 11:26:11;;;;;;;23.40;21.00;;;9.90;94.10;;;;;;5046455;28;20677;-89
2021/04/30 11:29:09;;;;;;;22.50;20.13;;;9.80;94.50;;;;;;5059514;28;20539;-89
2021/04/30 11:31:40;;;;;;;24.97;22.27;;;9.80;94.80;;;;;;5060608;28;20467;-90
2021/04/30 11:34:21;;;;;;;22.30;20.10;;;9.70;95.40;;;;;;5060707;28;20520;-90
2021/04/30 11:36:55;;;;;;;25.93;21.40;;;9.60;96.00;;;;;;5060679;28;20440;-89
2021/04/30 11:39:24;;;;;;;24.33;21.83;;;9.60;96.80;;;;;;5060351;28;20479;-88
2021/04/30 11:41:52;;;;;;;22.70;20.37;;;9.60;97.00;;;;;;5060770;28;20551;-89
2021/04/30 11:44:20;;;;;;;24.50;21.77;;;9.50;97.10;;;;;;5060115;28;20500;-89
2021/04/30 11:46:58;;;;;;;23.47;20.90;;;9.40;97.70;;;;;;5048167;28;20988;-89
2021/04/30 11:49:26;;;;;;;23.30;20.80;;;9.50;98.30;;;;;;5040326;28;20485;-89
2021/04/30 11:51:53;;;;;;;27.00;22.90;;;9.40;98.20;;;;;;5041671;28;20460;-89
2021/04/30 11:54:20;;;;;;;24.40;21.80;;;9.40;98.50;;;;;;5044818;28;20823;-90
2021/04/30 11:57:00;;;;;;;22.87;20.67;;;9.30;99.20;;;;;;5052835;28;20426;-88
2021/04/30 11:59:26;;;;;;;21.60;19.03;;;9.20;99.70;;;;;;5056923;28;20430;-89
2021/04/30 12:01:57;;;;;;;22.70;20.30;;;9.10;99.20;;;;;;5058897;28;20437;-89
2021/04/30 12:04:45;;;;;;;21.53;19.30;;;9.10;99.60;;;;;;5049977;28;20480;-89
2021/04/30 12:07:14;;;;;;;24.00;21.50;;;9.10;99.90;;;;;;5054746;28;20441;-89
2021/04/30 12:09:46;;;;;;;22.20;20.00;;;9.10;99.90;;;;;;5056502;28;20476;-89
2021/04/30 12:12:20;;;;;;;24.03;21.43;;;9.10;99.90;;;;;;5044552;28;20445;-89
2021/04/30 12:14:59;;;;;;;23.63;20.97;;;9.20;99.90;;;;;;5042058;28;20469;-89
2021/04/30 12:17:34;;;;;;;24.83;20.70;;;9.10;99.90;;;;;;5041074;28;20460;-89
2021/04/30 12:20:08;;;;;;;20.63;17.40;;;9.00;99.90;;;;;;5058841;28;20516;-89
2021/04/30 12:22:56;;;;;;;20.30;18.40;;;8.90;99.90;;;;;;5056173;28;20809;-89
2021/04/30 12:25:29;;;;;;;19.50;17.67;;;8.80;99.90;;;;;;5059689;28;20469;-89
2021/04/30 12:28:20;;;;;;;20.27;18.17;;;8.80;99.90;;;;;;5059401;28;20540;-89
2021/04/30 12:30:54;;;;;;;18.47;16.57;;;8.70;99.90;;;;;;5051843;28;20429;-88
2021/04/30 12:33:30;;;;;;;20.13;17.93;;;8.80;99.90;;;;;;5047897;28;20441;-89
2021/04/30 12:36:04;;;;;;;21.43;19.23;;;8.80;99.90;;;;;;5037282;28;20567;-88
2021/04/30 12:38:35;;;;;;;20.90;18.70;;;8.90;99.90;;;;;;5041877;28;20440;-87
2021/04/30 12:41:10;;;;;;;19.30;17.27;;;9.00;99.90;;;;;;5041408;28;20508;-88
2021/04/30 12:43:45;;;;;;;20.57;18.47;;;9.00;99.90;;;;;;5041573;28;20452;-89
2021/04/30 12:46:21;;;;;;;21.23;19.03;;;9.00;99.90;;;;;;5039521;28;20445;-89
2021/04/30 12:48:53;;;;;;;27.90;24.90;;;9.10;99.90;;;;;;5039210;28;20479;-89
2021/04/30 12:51:29;;;;;;;24.90;21.80;;;9.10;99.90;;;;;;5049175;28;20428;-88
2021/04/30 12:54:04;;;;;;;22.00;18.40;;;9.20;99.90;;;;;;5057491;28;20525;-87
2021/04/30 12:56:36;;;;;;;19.77;17.77;;;9.30;99.90;;;;;;5046981;28;20525;-87
2021/04/30 12:59:08;;;;;;;21.30;19.27;;;9.30;99.90;;;;;;5060276;28;20425;-89
2021/04/30 13:01:35;;;;;;;19.30;17.40;;;9.30;99.90;;;;;;5051715;28;20476;-87
2021/04/30 13:04:19;;;;;;;21.27;19.00;;;9.30;99.90;;;;;;5038803;28;20499;-89
2021/04/30 13:07:02;;;;;;;19.20;17.30;;;9.30;99.90;;;;;;5037787;28;20487;-88
2021/04/30 13:14:57;;;;;;;18.80;16.90;;;9.20;99.90;;;;;;5038596;28;20453;-87
2021/04/30 13:17:37;;;;;;;20.73;18.60;;;9.10;99.90;;;;;;5058659;28;20445;-87
2021/04/30 13:20:16;;;;;;;19.53;16.87;;;9.10;99.90;;;;;;5059475;28;20425;-87
2021/04/30 13:25:58;;;;;;;;;;;;;;;;;;;;;
2021/04/30 13:28:31;;;;;;;19.97;17.87;;;9.10;99.90;;;;;;5039302;28;20489;-87
2021/04/30 13:30:57;;;;;;;19.90;17.90;;;9.20;99.90;;;;;;5038564;28;20939;-89
2021/04/30 13:33:26;;;;;;;18.93;17.00;;;9.20;99.90;;;;;;5039657;28;20468;-88
2021/04/30 13:36:06;;;;;;;20.00;17.57;;;9.10;99.90;;;;;;5038277;28;20477;-89
2021/04/30 13:38:44;;;;;;;20.07;18.07;;;9.10;99.90;;;;;;5037840;28;20449;-88
2021/04/30 14:31:26;;;;;;;23.37;19.83;;;9.50;99.90;;;;;;3048806;22;21086;-88
2021/04/30 15:00:59;;;;;;;20.27;18.27;;;9.80;99.90;;;;;;4889560;29;20451;-89
2021/04/30 15:03:47;;;;;;;20.70;18.70;;;9.80;99.90;;;;;;4874132;29;20811;-89
2021/04/30 15:16:55;;;;;;;19.03;16.37;;;10.30;99.90;;;;;;4836857;29;20448;-88
2021/04/30 15:27:28;;;;;;;;;;;;;;;;;;;;;
2021/04/30 15:48:34;;;;;;;19.10;16.60;;;10.00;99.90;;;;;;5133053;22;20506;-89
2021/04/30 16:16:23;;;;;;;18.87;16.97;;;10.80;99.80;;;;;;4996272;28;20561;-89
2021/04/30 18:49:37;;;;;;;25.20;22.60;;;8.70;99.90;;;;;;4864361;29;20503;-88
2021/04/30 20:57:35;;;;;;;32.83;29.10;;;8.70;99.90;;;;;;4931558;29;20450;-91
2021/04/30 21:07:41;;;;;;;34.60;30.90;;;8.60;99.90;;;;;;4937205;29;20531;-90
2021/04/30 21:10:51;;;;;;;36.50;31.87;;;8.60;99.90;;;;;;4927866;29;20505;-89
2021/04/30 21:17:20;;;;;;;33.57;29.97;;;8.60;99.90;;;;;;4790160;30;20535;-90
2021/04/30 21:22:51;;;;;;;35.40;31.60;;;8.60;99.90;;;;;;4827841;29;20454;-90
2021/04/30 21:25:57;;;;;;;37.17;31.67;;;8.60;99.90;;;;;;4827436;29;20455;-89